createdAt,value
2018-04-08T16:13:56.848Z,20.33
2018-04-08T16:16:24.386Z,22.73
2018-04-08T16:18:51.938Z,25.03
2018-04-08T16:21:20.272Z,20.83
2018-04-08T16:23:47.798Z,23.60
2018-04-08T16:26:16.400Z,23.73
2018-04-08T16:28:43.968Z,24.97
2018-04-08T16:31:11.483Z,22.37
2018-04-08T16:33:39.009Z,24.90
2018-04-08T16:36:06.661Z,22.83
2018-04-08T16:38:34.198Z,20.80
2018-04-08T16:41:01.733Z,22.20
2018-04-08T16:43:29.293Z,20.47
2018-04-08T16:45:56.804Z,22.93
2018-04-08T16:48:24.332Z,23.03
2018-04-08T16:50:52.016Z,22.13
2018-04-08T16:53:19.649Z,22.25
2018-04-08T16:55:47.176Z,23.97
2018-04-08T16:58:16.515Z,23.48
2018-04-08T17:00:44.024Z,23.03
2018-04-08T17:03:12.303Z,24.92
2018-04-08T17:05:40.614Z,22.17
2018-04-08T17:08:08.281Z,24.00
2018-04-08T17:10:35.883Z,26.90
2018-04-08T17:13:03.483Z,21.90
2018-04-08T17:15:32.172Z,21.80
2018-04-08T17:17:59.686Z,26.27
2018-04-08T17:20:27.268Z,22.37
2018-04-08T17:22:55.548Z,22.47
2018-04-08T17:25:23.081Z,22.97
2018-04-08T17:27:51.417Z,20.83
2018-04-08T17:30:18.944Z,20.40
2018-04-08T17:32:46.469Z,22.87
2018-04-08T17:35:27.001Z,27.75
2018-04-08T17:40:34.495Z,31.47
2018-04-08T17:43:02.015Z,22.50
2018-04-08T17:45:30.304Z,23.70
2018-04-08T17:47:57.864Z,20.50
2018-04-08T17:50:25.384Z,23.77
2018-04-08T17:52:52.924Z,25.63
2018-04-08T17:55:20.475Z,25.84
2018-04-08T17:57:47.998Z,24.27
2018-04-08T18:00:15.783Z,27.58
2018-04-08T18:02:43.823Z,25.07
2018-04-08T18:05:11.341Z,24.37
2018-04-08T18:07:38.852Z,27.30
2018-04-08T18:10:06.416Z,22.00
2018-04-08T18:12:33.942Z,22.77
2018-04-08T18:15:02.332Z,25.35
2018-04-08T18:17:30.541Z,33.27
2018-04-08T18:19:58.064Z,22.90
2018-04-08T18:22:25.588Z,24.33
2018-04-08T18:24:53.836Z,24.87
2018-04-08T18:27:21.352Z,29.42
2018-04-08T18:29:49.657Z,27.80
2018-04-08T18:32:17.433Z,26.17
2018-04-08T18:34:44.948Z,27.17
2018-04-08T18:37:14.185Z,26.03
2018-04-08T18:39:41.805Z,23.80
2018-04-08T18:42:09.338Z,24.15
2018-04-08T18:44:36.868Z,24.37
2018-04-08T18:47:05.983Z,27.92
2018-04-08T18:49:34.396Z,24.40
2018-04-08T18:52:02.745Z,25.23
2018-04-08T18:54:30.308Z,34.80
2018-04-08T18:56:57.820Z,26.67
2018-04-08T18:59:25.356Z,22.73
2018-04-08T19:01:53.056Z,24.60
2018-04-08T19:04:20.577Z,28.45
2018-04-08T19:06:48.092Z,27.43
2018-04-08T19:09:18.001Z,25.65
2018-04-08T19:11:45.530Z,29.80
2018-04-08T19:14:24.476Z,28.33
2018-04-08T19:21:20.893Z,26.00
2018-04-08T19:23:48.444Z,27.40
2018-04-08T19:26:16.412Z,24.47
2018-04-08T19:28:44.329Z,29.80
2018-04-08T19:31:11.940Z,28.80
2018-04-08T19:33:40.260Z,23.95
2018-04-08T19:36:07.840Z,30.00
2018-04-08T19:38:35.381Z,27.67
2018-04-08T19:41:02.923Z,31.83
2018-04-08T19:43:30.499Z,31.20
2018-04-08T19:45:58.040Z,29.00
2018-04-08T19:48:25.560Z,33.03
2018-04-08T19:50:53.489Z,30.17
2018-04-08T19:53:21.109Z,28.90
2018-04-08T19:55:49.405Z,30.80
2018-04-08T19:58:17.000Z,28.93
2018-04-08T20:00:44.532Z,33.50
2018-04-08T20:03:12.056Z,27.50
2018-04-08T20:05:40.377Z,33.60
2018-04-08T20:08:07.906Z,30.83
2018-04-08T20:10:35.448Z,36.87
2018-04-08T20:13:03.218Z,31.70
2018-04-08T20:15:31.502Z,28.93
2018-04-08T20:17:59.789Z,33.53
2018-04-08T20:20:27.344Z,38.13
2018-04-08T20:22:55.384Z,29.67
2018-04-08T20:25:23.269Z,35.93
2018-04-08T20:27:51.582Z,33.10
2018-04-08T20:30:19.101Z,37.67
2018-04-08T20:32:47.410Z,32.40
2018-04-08T20:35:17.845Z,32.17
2018-04-08T20:37:45.368Z,36.63
2018-04-08T20:40:19.460Z,34.42
2018-04-08T20:42:46.976Z,28.40
2018-04-08T20:45:25.904Z,29.27
2018-04-08T20:52:15.097Z,28.97
2018-04-08T20:54:42.625Z,34.07
2018-04-08T20:57:10.201Z,30.30
2018-04-08T20:59:37.744Z,31.77
2018-04-08T21:02:05.269Z,35.00
2018-04-08T21:04:32.794Z,35.70
2018-04-08T21:07:00.339Z,30.60
2018-04-08T21:09:27.872Z,30.33
2018-04-08T21:11:55.416Z,30.20
2018-04-08T21:14:23.733Z,37.70
2018-04-08T21:16:51.325Z,36.50
2018-04-08T21:19:18.847Z,29.37
2018-04-08T21:21:46.404Z,30.20
2018-04-08T21:24:16.729Z,40.00
2018-04-08T21:26:44.248Z,32.97
2018-04-08T21:29:12.573Z,40.57
2018-04-08T21:31:40.122Z,30.10
2018-04-08T21:34:07.649Z,33.67
2018-04-08T21:36:36.433Z,33.67
2018-04-08T21:39:03.970Z,34.20
2018-04-08T21:41:31.489Z,36.70
2018-04-08T21:43:59.048Z,30.00
2018-04-08T21:46:26.575Z,32.65
2018-04-08T21:48:54.879Z,35.50
2018-04-08T21:51:22.419Z,35.10
2018-04-08T21:53:49.971Z,36.50
2018-04-08T21:56:17.496Z,36.88
2018-04-08T21:58:45.382Z,34.73
2018-04-08T22:01:14.430Z,36.55
2018-04-08T22:07:59.493Z,39.20
2018-04-08T22:10:27.024Z,30.57
2018-04-08T22:12:55.318Z,35.20
2018-04-08T22:15:24.148Z,35.80
2018-04-08T22:17:51.680Z,47.37
2018-04-08T22:20:19.196Z,32.37
2018-04-08T22:22:46.732Z,36.40
2018-04-08T22:25:26.446Z,49.97
2018-04-08T22:30:59.664Z,34.33
2018-04-08T22:33:27.176Z,44.43
2018-04-08T22:35:54.692Z,45.23
2018-04-08T22:38:22.268Z,44.70
2018-04-08T22:40:49.820Z,40.43
2018-04-08T22:43:17.356Z,51.43
2018-04-08T22:45:45.673Z,52.60
2018-04-08T22:48:15.324Z,56.67
2018-04-08T22:50:42.855Z,46.13
2018-04-08T22:53:10.764Z,52.70
2018-04-08T22:55:38.288Z,43.60
2018-04-08T22:58:06.573Z,47.80
2018-04-08T23:00:34.131Z,45.70
2018-04-08T23:03:02.413Z,45.50
2018-04-08T23:05:30.688Z,47.47
2018-04-08T23:07:58.237Z,46.07
2018-04-08T23:10:26.524Z,41.10
2018-04-08T23:12:54.044Z,37.90
2018-04-08T23:15:21.986Z,40.90
2018-04-08T23:17:49.559Z,41.90
2018-04-08T23:20:17.100Z,41.50
2018-04-08T23:22:44.684Z,43.47
2018-04-08T23:25:12.207Z,56.27
2018-04-08T23:27:40.131Z,36.67
2018-04-08T23:30:08.459Z,41.83
2018-04-08T23:32:36.031Z,42.97
2018-04-08T23:35:03.599Z,41.58
2018-04-08T23:37:31.693Z,42.50
2018-04-08T23:39:59.216Z,35.70
2018-04-08T23:42:26.736Z,32.73
2018-04-08T23:44:54.288Z,40.10
2018-04-08T23:47:21.824Z,34.63
2018-04-08T23:49:49.342Z,38.27
2018-04-08T23:52:16.896Z,33.77
2018-04-08T23:54:44.465Z,37.63
2018-04-08T23:57:11.983Z,45.63
2018-04-08T23:59:39.836Z,41.35
